Tiempo atmosférico en la estación meteorológica de Morón De La Frontera, Sevilla (87 m.)



Fecha
DESCASC
Temp. máxima en grados centígrados (hora)
DESCASC
Temp. mínima en grados centígrados (hora)
DESCASC
Temp. media en grados centígrados
DESCASC
Racha de viento máxima en m/sg (hora)
DESCASC
Velocidad máxima media en intervalos de 10 minutos(hora)
DESCASC
Precipitaciones diarias en mm
DESCASC
Precipitaciones de 00:00 a 06:00 en mm
DESCASC
Precipitaciones de 06:00 a 12:00 en mm
DESCASC
Precipitaciones de 12:00 a 18:00 en mm
DESCASC
Precipitaciones de 18:00 a 24:00 en mm
DESCASC
20-01-2019 15.5 (16:50) 5.2 (23:50) 10.3 9.72 (00:10) 5.28 (00:10) 0 0 0 0 0
19-01-2019 13.4 (23:59) 7.8 (04:50) 10.6 9.72 (23:50) 6.11 (23:50) 13.2 2.2 0.9 2.6 7.5
18-01-2019 15.2 (16:40) 1.4 (00:00) 8.3 5.83 (21:30) 3.33 (21:20) 0 0 0 0 0
17-01-2019 14.8 (15:10) 6.8 (00:00) 10.8 3.89 (16:30) 2.5 (16:30) 0 0 0 0 0
16-01-2019 16.8 (16:00) 4.1 (08:50) 10.4 4.17 (13:20) 1.94 (06:20) 0 0 0 0 0
15-01-2019 15.1 (15:00) 3 (00:00) 9.1 4.17 (14:30) 2.5 (13:20) 0 0 0 0 0
14-01-2019 17.8 (17:30) -0.5 (-00:0) 8.6 4.17 (19:10) 2.78 (19:10) 0 0 0 0 0
13-01-2019 16.9 (16:20) -0.9 (04:40) 8 5.83 (14:50) 3.89 (16:50) 0 0 0 0 0
12-01-2019 16 (16:10) 1 (00:00) 8.5 6.67 (17:10) 4.72 (14:10) 0 0 0 0 0
11-01-2019 13 (16:40) 1.9 (00:00) 7.4 10.28 (10:40) 6.11 (10:50) 0 0 0 0 0
10-01-2019 16.2 (15:40) 0.3 (00:00) 8.3 8.89 (14:00) 5.28 (14:00) 0 0 0 0 0
09-01-2019 17.9 (17:20) 0.4 (00:00) 9.1 6.11 (13:00) 4.44 (12:30) 0 0 0 0 0
08-01-2019 16.8 (16:10) -2 (-00:0) 7.4 4.72 (14:00) 3.33 (14:00) 0 0 0 0 0
07-01-2019 16.8 (16:10) 0 (00:00) 8.4 3.89 (12:40) 2.5 (12:40) 0 0 0 0 0
06-01-2019 16.9 (16:20) 0.5 (00:00) 8.7 5.83 (13:30) 3.89 (13:30) 0 0 0 0 0
05-01-2019 17.2 (15:10) 0.7 (00:00) 9 5.28 (16:00) 3.33 (16:00) 0 0 0 0 0
04-01-2019 17.9 (16:40) 2 (00:00) 9.9 5.28 (17:30) 3.33 (17:30) 0 0 0 0 0
03-01-2019 16.1 (16:10) 3.9 (00:00) 10 4.17 (14:10) 2.5 (12:00) 0 0 0 0 0
02-01-2019 18.5 (16:40) 1.1 (00:00) 9.8 3.61 (18:20) 2.5 (18:20) 0 0 0 0 0
01-01-2019 17.4 (17:10) 2.1 (08:00) 9.7 2.78 (22:10) 2.22 (22:00) 0 0 0 0 0
31-12-2018 19.8 (16:30) 4.6 (00:00) 12.2 7.22 (21:50) 3.89 (00:30) 0 0 0 0 0
30-12-2018 18.7 (13:50) 8 (00:00) 13.4 9.72 (12:10) 5.28 (16:50) 0 0 0 0 0
29-12-2018 16.1 (16:10) 4.4 (00:00) 10.3 8.61 (14:50) 5.28 (16:00) 0 0 0 0 0
28-12-2018 16.1 (15:30) 3.2 (08:50) 9.7 5.28 (16:00) 3.89 (15:50) 0 0 0 0 0
27-12-2018 16.6 (15:50) 2.9 (00:00) 9.8 3.33 (23:40) 2.5 (23:40) 0 0 0 0 0
26-12-2018 17.4 (16:30) 3.5 (00:00) 10.4 2.5 (00:10) 1.94 (22:50) 0 0 0 0 0
25-12-2018 18.1 (17:00) 5.5 (00:00) 11.8 3.06 (15:30) 1.94 (07:50) 0 0 0 0 0
23-12-2018 20.4 (17:10) 3.1 (00:00) 11.7 3.33 (13:50) 2.22 (19:50) 0 0 0 0 0

Gráficas

Temp. máximas Temp. mínimas Temp. medias Precipitaciones Rachas de viento máximas Velocidades máximas media en intervalos de 10 minutos

Datos horarios

Fecha y hora oficial Temperatura (ºC) Velocidad del viento (km/h) Dirección del viento Racha (km/h) Dirección de racha Precipitación (mm) Presión (hPa) Tendencia (hPa) Humedad (%)
2019-01-21 23:00:00 4.7 5 Sur 7 Sur 0 -- -- 86
2019-01-21 22:00:00 5.8 4 Sur 8 Sur 0 -- -- 83
2019-01-21 21:00:00 6.7 5 Sudeste 7 Sudeste 0 -- -- 79
2019-01-21 20:00:00 8.7 3 Sudoeste 5 Oeste 0 -- -- 63
2019-01-21 19:00:00 11.1 2 Sur 4 Nordeste 0 -- -- 51
2019-01-21 18:00:00 13.6 3 Nordeste 11 Nordeste 0 -- -- 42
2019-01-21 17:00:00 14.6 6 Este 14 Nordeste 0 -- -- 41
2019-01-21 16:00:00 14.4 9 Nordeste 17 Nordeste 0 -- -- 45
2019-01-21 15:00:00 13.6 8 Norte 16 Nordeste 0 -- -- 50
2019-01-21 14:00:00 12.5 8 Nordeste 18 Nordeste 0 -- -- 53
2019-01-21 13:00:00 11.8 10 Nordeste 18 Nordeste 0 -- -- 56
2019-01-21 12:00:00 10.7 11 Nordeste 16 Nordeste 0 -- -- 65
2019-01-21 11:00:00 8 4 Norte 8 Nordeste 0 -- -- 79
2019-01-21 10:00:00 5.1 0 Calma 5 Sur 0 -- -- 91
2019-01-21 09:00:00 2.1 4 Sur 7 Sudeste 0 -- -- 92
2019-01-21 08:00:00 1.9 6 Sudeste 7 Sudeste 0 -- -- 92
2019-01-21 07:00:00 1.9 5 Sur 8 Sur 0 -- -- 91
2019-01-21 06:00:00 2.1 4 Sur 7 Sur 0 -- -- 91
2019-01-21 05:00:00 3.1 5 Sur 7 Sur 0 -- -- 91
2019-01-21 04:00:00 3.1 6 Sudeste 8 Sur 0 -- -- 90
2019-01-21 03:00:00 4.2 5 Sur 8 Sudeste 0 -- -- 90
2019-01-21 02:00:00 3.9 5 Sur 8 Sur 0 -- -- 88
2019-01-21 01:00:00 4.7 6 Sur 8 Sur 0 -- -- 87
2019-01-21 00:00:00 5.2 4 Sudoeste 8 Sudeste 0 -- -- 83
2019-01-20 23:00:00 7.5 0 Calma 9 Sur 0 -- -- 75
2019-01-20 22:00:00 9.1 3 Norte 15 Norte 0 -- -- 67
2019-01-20 21:00:00 9.6 9 Norte 15 Norte 0 -- -- 68
2019-01-20 20:00:00 11.4 12 Norte 18 Norte 0 -- -- 63
2019-01-20 19:00:00 12.1 8 Norte 16 Norte 0 -- -- 60
2019-01-20 18:00:00 14.3 8 Noroeste 22 Norte 0 -- -- 52
2019-01-20 17:00:00 15.2 14 Norte 24 Norte 0 -- -- 49
2019-01-20 16:00:00 14.7 15 Norte 24 Norte 0 -- -- 51
2019-01-20 15:00:00 14.2 14 Norte 24 Norte 0 -- -- 53
2019-01-20 14:00:00 13.3 10 Norte 17 Norte 0 -- -- 59
2019-01-20 13:00:00 13.2 9 Norte 20 Norte 0 -- -- 62
2019-01-20 12:00:00 13.4 7 Noroeste 15 Noroeste 0 -- -- 68
2019-01-20 11:00:00 12 3 Oeste 19 Noroeste 0 -- -- 79
2019-01-20 10:00:00 11.1 4 Oeste 16 Noroeste 0 -- -- 86
2019-01-20 09:00:00 11.3 3 Noroeste 17 Noroeste 0 -- -- 89
2019-01-20 08:00:00 11.6 7 Oeste 22 Oeste 0 -- -- 90
2019-01-20 07:00:00 12 10 Oeste 28 Sudoeste 0 -- -- 88
2019-01-20 06:00:00 12.2 15 Oeste 26 Oeste 0 -- -- 86
2019-01-20 05:00:00 12.2 13 Oeste 23 Sudoeste 0 -- -- 86
2019-01-20 04:00:00 12.1 13 Oeste 23 Sudoeste 0 -- -- 90
2019-01-20 03:00:00 12.3 12 Oeste 22 Sudoeste 0 -- -- 91
2019-01-20 02:00:00 12 13 Oeste 22 Oeste 0 -- -- 90
2019-01-20 01:00:00 13.4 15 Oeste 35 Oeste 0 -- -- 91
2019-01-20 00:00:00 13.4 19 Oeste 35 Oeste 0.6 -- -- 90
2019-01-19 23:00:00 12.2 12 Sudoeste 34 Sudoeste 3.3 -- -- 91
2019-01-19 22:00:00 12.8 13 Sudoeste 31 Sudoeste 2.4 -- -- 91
2019-01-19 21:00:00 12.1 14 Sudoeste 27 Sudoeste 1.2 -- -- 91
2019-01-19 20:00:00 11.5 12 Sudoeste 21 Sudoeste 0 -- -- 89
2019-01-19 19:00:00 11.3 12 Sudoeste 19 Sudoeste 0 -- -- 90
2019-01-19 18:00:00 11.3 7 Sudoeste 15 Sudoeste 1.6 -- -- 90
2019-01-19 17:00:00 11.1 10 Sudoeste 17 Oeste 0.8 -- -- 87
2019-01-19 16:00:00 11.1 9 Sudoeste 17 Oeste 0.2 -- -- 83
2019-01-19 15:00:00 11.4 9 Oeste 17 Oeste 0 -- -- 77
2019-01-19 14:00:00 11.2 7 Oeste 14 Oeste 0 -- -- 76
2019-01-19 13:00:00 11.7 5 Oeste 10 Sudoeste 0 -- -- 74
2019-01-19 12:00:00 11.3 2 Este 6 Nordeste 0 -- -- 83
2019-01-19 11:00:00 9.3 2 Este 14 Este 0 -- -- 90
2019-01-19 10:00:00 8.7 5 Nordeste 12 Nordeste 0 -- -- 93
2019-01-19 09:00:00 8 8 Nordeste 13 Nordeste 0 -- -- 94
2019-01-19 08:00:00 8.1 8 Este 16 Nordeste 0.1 -- -- 94
2019-01-19 07:00:00 7.9 7 Este 12 Este 0.8 -- -- 94
2019-01-19 06:00:00 7.9 5 Este 8 Este 0.8 -- -- 93
2019-01-19 05:00:00 7.9 6 Sur 12 Sudoeste 0.5 -- -- 93
2019-01-19 04:00:00 8.3 6 Sudoeste 12 Sudoeste 0.4 -- -- 91
2019-01-19 03:00:00 8.4 6 Oeste 16 Oeste 0.4 -- -- 87
2019-01-19 02:00:00 9.3 8 Oeste 14 Oeste 0.1 -- -- 77
2019-01-19 01:00:00 9.5 6 Sudoeste 12 Sudoeste 0 -- -- 75
2019-01-19 00:00:00 9.9 5 Sudoeste 12 Oeste 0 -- -- 72
2019-01-18 23:00:00 10.4 8 Oeste 16 Oeste 0 -- -- 71
2019-01-18 22:00:00 10.8 7 Oeste 21 Oeste 0 -- -- 70
2019-01-18 21:00:00 10.8 9 Oeste 16 Oeste 0 -- -- 68
2019-01-18 20:00:00 11.1 8 Sudoeste 13 Sudoeste 0 -- -- 59
2019-01-18 19:00:00 11.9 6 Oeste 9 Oeste 0 -- -- 54
2019-01-18 18:00:00 13.1 3 Oeste 10 Oeste 0 -- -- 48
2019-01-18 17:00:00 14.1 5 Noroeste 13 Norte 0 -- -- 43
2019-01-18 16:00:00 14.5 4 Noroeste 14 Norte 0 -- -- 45
2019-01-18 15:00:00 13.5 8 Nordeste 12 Norte 0 -- -- 49
2019-01-18 14:00:00 12.8 0 Calma 10 Nordeste 0 -- -- 52
2019-01-18 13:00:00 12.1 6 Este 15 Este 0 -- -- 57
2019-01-18 12:00:00 10.6 9 Nordeste 14 Este 0 -- -- 68
2019-01-18 11:00:00 7.6 5 Nordeste 8 Este 0 -- -- 87
2019-01-18 10:00:00 2.6 5 Sudeste 7 Sudeste 0 -- -- 92
2019-01-18 09:00:00 2 0 Calma 6 Sudeste 0 -- -- 93
2019-01-18 08:00:00 2.2 3 Norte 7 Este 0 -- -- 93
2019-01-18 07:00:00 2.2 5 Sudeste 9 Sudeste 0 -- -- 93
2019-01-18 06:00:00 2.2 4 Sur 8 Sudeste 0 -- -- 91
2019-01-18 05:00:00 3.1 2 Sur 4 Nordeste 0 -- -- 90
2019-01-18 04:00:00 3.6 0 Calma 5 Nordeste 0 -- -- 90
2019-01-18 03:00:00 3.5 3 Sudeste 5 Sudeste 0 -- -- 89
2019-01-18 02:00:00 3.5 5 Sudeste 7 Sudeste 0 -- -- 88
2019-01-18 01:00:00 5.9 2 Este 6 Sudeste 0 -- -- 87
2019-01-18 00:00:00 6.8 6 Sudeste 7 Sudeste 0 -- -- 83
2019-01-17 23:00:00 8.2 4 Sudeste 6 Sudeste 0 -- -- 77
2019-01-17 22:00:00 9.1 4 Sur 6 Sudeste 0 -- -- 74
2019-01-17 21:00:00 9.7 0 Calma 5 Este 0 -- -- 70
2019-01-17 20:00:00 11.4 3 Nordeste 8 Nordeste 0 -- -- 65
2019-01-17 19:00:00 11.7 4 Norte 9 Norte 0 -- -- 61
2019-01-17 18:00:00 13.2 7 Norte 10 Norte 0 -- -- 54
2019-01-17 17:00:00 14.2 3 Norte 14 Norte 0 -- -- 50
2019-01-17 16:00:00 14.6 6 Nordeste 13 Nordeste 0 -- -- 50
2019-01-17 15:00:00 14.5 4 Norte 13 Norte 0 -- -- 52
2019-01-17 14:00:00 13.6 7 Nordeste 13 Norte 0 -- -- 61
2019-01-17 13:00:00 13.2 6 Norte 13 Norte 0 -- -- 70
2019-01-17 12:00:00 11.9 2 Noroeste 8 Nordeste 0 -- -- 77
2019-01-17 11:00:00 10.5 3 Este 8 Nordeste 0 -- -- 85
2019-01-17 10:00:00 8.9 4 Sudeste 7 Norte 0 -- -- 86
2019-01-17 09:00:00 7.4 2 Norte 5 Noroeste 0 -- -- 89
2019-01-17 08:00:00 8.4 3 Sur 6 Sudeste 0 -- -- 88
2019-01-17 07:00:00 8.4 0 Calma 6 Nordeste 0 -- -- 87
2019-01-17 06:00:00 8.6 3 Norte 13 Norte 0 -- -- 87
2019-01-17 05:00:00 8.8 0 Calma 5 Sur 0 -- -- 85
2019-01-17 04:00:00 8.2 4 Sur 8 Sur 0 -- -- 84
2019-01-17 03:00:00 8.9 0 Calma 3 Este 0 -- -- 82
2019-01-17 02:00:00 9.3 0 Calma 6 Este 0 -- -- 81
2019-01-17 01:00:00 10.2 0 Calma 4 Sudoeste 0 -- -- 76
2019-01-17 00:00:00 10.6 3 Sudoeste 7 Sudoeste 0 -- -- 75
2019-01-16 23:00:00 10.9 6 Sur 7 Sur 0 -- -- 72
2019-01-16 22:00:00 11.8 6 Sur 10 Sudoeste 0 -- -- 68
2019-01-16 21:00:00 11.9 0 Calma 8 Sudoeste 0 -- -- 66
2019-01-16 20:00:00 12.5 5 Sudoeste 9 Sudoeste 0 -- -- 59
2019-01-16 19:00:00 13.3 0 Calma 6 Oeste 0 -- -- 59
2019-01-16 18:00:00 14.5 2 Oeste 7 Oeste 0 -- -- 53
2019-01-16 17:00:00 15.3 3 Oeste 12 Sudoeste 0 -- -- 49
2019-01-16 16:00:00 16.7 3 Oeste 10 Oeste 0 -- -- 45
2019-01-16 15:00:00 16.3 3 Oeste 11 Sudoeste 0 -- -- 47
2019-01-16 14:00:00 16.2 0 Calma 15 Oeste 0 -- -- 48
2019-01-16 13:00:00 15.8 3 Oeste 9 Oeste 0 -- -- 52